Time;durP1;ratioP1;P1;durP2;ratioP2;P2;SDS_P1;SDS_P2;PMS_P1;PMS_P2;Temp;Humidity;BMP_temperature;BMP_pressure;BME280_temperature;BME280_humidity;BME280_pressure;Samples;Min_cycle;Max_cycle;Signal;HPM_P1;HPM_P2
2022/01/26 00:05:47;;;;;;;104.13;48.97;;;4.40;99.90;;;;;;4990890;28;20402;-63
2022/01/26 00:06:45;;;;;;;107.65;48.20;;;4.30;99.90;;;;;;5009802;28;20107;-63
2022/01/26 00:09:12;;;;;;;112.25;50.50;;;4.30;99.90;;;;;;4997771;28;20570;-63
2022/01/26 00:11:38;;;;;;;114.78;50.50;;;4.30;99.90;;;;;;4992821;28;20034;-63
2022/01/26 00:14:12;;;;;;;104.18;46.42;;;4.30;99.90;;;;;;4995720;28;20038;-63
2022/01/26 00:16:40;;;;;;;110.65;52.65;;;4.30;99.90;;;;;;4997438;28;20112;-63
2022/01/26 00:19:09;;;;;;;115.90;51.92;;;4.30;99.90;;;;;;4989826;28;20100;-63
2022/01/26 00:21:44;;;;;;;116.13;51.88;;;4.30;99.90;;;;;;4999868;28;20481;-63
2022/01/26 00:29:21;;;;;;;103.30;49.55;;;4.30;99.90;;;;;;4991342;28;20069;-63
2022/01/26 00:40:37;;;;;;;105.30;48.78;;;4.30;99.90;;;;;;5005396;28;20085;-63
2022/01/26 00:43:15;;;;;;;103.65;50.78;;;4.40;99.90;;;;;;5007274;28;20508;-63
2022/01/26 00:45:42;;;;;;;99.88;49.20;;;4.40;99.90;;;;;;5003115;28;20553;-63
2022/01/26 00:48:10;;;;;;;101.05;51.38;;;4.40;99.90;;;;;;5008228;28;20096;-63
2022/01/26 00:50:37;;;;;;;98.22;52.40;;;4.40;99.90;;;;;;5004724;28;20070;-63
2022/01/26 00:53:03;;;;;;;99.00;51.30;;;4.40;99.90;;;;;;5005236;28;20068;-63
2022/01/26 00:55:29;;;;;;;90.85;52.17;;;4.40;99.90;;;;;;5008826;28;20100;-63
2022/01/26 00:57:55;;;;;;;91.05;52.83;;;4.40;99.90;;;;;;5000307;28;20042;-63
2022/01/26 01:00:23;;;;;;;95.68;50.50;;;4.40;99.90;;;;;;5005470;28;20445;-63
2022/01/26 01:02:50;;;;;;;87.95;49.58;;;4.40;99.90;;;;;;5009142;28;20049;-63
2022/01/26 01:05:27;;;;;;;90.55;52.28;;;4.40;99.90;;;;;;4991248;28;20057;-63
2022/01/26 01:07:59;;;;;;;100.07;50.30;;;4.40;99.90;;;;;;4991203;28;20046;-63
2022/01/26 01:10:26;;;;;;;95.60;49.93;;;4.40;99.90;;;;;;4994124;28;20323;-63
2022/01/26 01:12:56;;;;;;;88.55;50.10;;;4.40;99.90;;;;;;4994043;28;20298;-63
2022/01/26 01:15:24;;;;;;;84.25;50.03;;;4.40;99.90;;;;;;4993372;28;20046;-63
2022/01/26 01:17:54;;;;;;;89.45;49.10;;;4.40;99.90;;;;;;4994740;28;20088;-63
2022/01/26 01:20:43;;;;;;;81.53;47.65;;;4.40;99.90;;;;;;5003122;28;20409;-63
2022/01/26 01:23:34;;;;;;;81.40;46.85;;;4.40;99.90;;;;;;5008015;28;20125;-63
2022/01/26 01:31:15;;;;;;;83.45;47.20;;;4.40;99.90;;;;;;5002661;28;19925;-63
2022/01/26 01:33:45;;;;;;;86.82;47.65;;;4.30;99.90;;;;;;4993719;28;20163;-63
2022/01/26 01:36:12;;;;;;;83.15;46.55;;;4.40;99.90;;;;;;5007876;28;20060;-63
2022/01/26 01:38:41;;;;;;;85.20;47.15;;;4.40;99.90;;;;;;5008852;28;20080;-63
2022/01/26 01:41:07;;;;;;;88.75;47.90;;;4.40;99.90;;;;;;4996868;28;20092;-62
2022/01/26 01:43:33;;;;;;;77.18;41.85;;;4.40;99.90;;;;;;4990640;28;20046;-62
2022/01/26 01:45:59;;;;;;;76.22;43.63;;;4.40;99.90;;;;;;5007612;28;20362;-63
2022/01/26 01:48:29;;;;;;;88.47;47.88;;;4.40;99.90;;;;;;5002028;28;20050;-63
2022/01/26 01:50:58;;;;;;;80.22;47.40;;;4.40;99.90;;;;;;5000245;28;20524;-63
2022/01/26 01:53:35;;;;;;;87.65;46.83;;;4.40;99.90;;;;;;4994739;28;20383;-62
2022/01/26 01:56:02;;;;;;;80.95;47.88;;;4.40;99.90;;;;;;4992739;28;20038;-63
2022/01/26 01:58:29;;;;;;;86.80;46.85;;;4.40;99.90;;;;;;4996844;28;20050;-62
2022/01/26 02:00:55;;;;;;;84.53;47.03;;;4.40;99.90;;;;;;4989878;28;20041;-63
2022/01/26 02:03:20;;;;;;;87.32;49.22;;;4.40;99.90;;;;;;4993006;28;20050;-63
2022/01/26 02:05:46;;;;;;;80.88;47.83;;;4.40;99.90;;;;;;5003313;28;20393;-63
2022/01/26 02:08:11;;;;;;;84.13;47.05;;;4.40;99.90;;;;;;5005631;28;20046;-63
2022/01/26 02:10:38;;;;;;;78.07;45.25;;;4.40;99.90;;;;;;5003400;28;20050;-63
2022/01/26 02:13:16;;;;;;;78.03;45.00;;;4.40;99.90;;;;;;4988394;28;20035;-63
2022/01/26 02:15:51;;;;;;;82.63;48.90;;;4.40;99.90;;;;;;4996303;28;20045;-63
2022/01/26 02:18:35;;;;;;;78.60;45.30;;;4.40;99.90;;;;;;4991248;28;20067;-63
2022/01/26 02:53:44;;;;;;;76.93;42.78;;;4.20;99.90;;;;;;5010701;28;20379;-63
2022/01/26 02:56:20;;;;;;;82.82;45.90;;;4.20;99.90;;;;;;4997419;28;20048;-63
2022/01/26 02:59:02;;;;;;;81.78;44.75;;;4.20;99.90;;;;;;4998270;28;20101;-63
2022/01/26 03:06:32;;;;;;;77.43;46.38;;;4.20;99.90;;;;;;5011030;28;20084;-63
2022/01/26 03:09:04;;;;;;;72.28;41.90;;;4.20;99.90;;;;;;5009258;28;20103;-63
2022/01/26 03:11:33;;;;;;;83.63;44.58;;;4.20;99.90;;;;;;4997864;28;20046;-63
2022/01/26 03:14:09;;;;;;;81.75;45.70;;;4.20;99.90;;;;;;4997788;28;20104;-63
2022/01/26 03:16:41;;;;;;;74.80;44.58;;;4.20;99.90;;;;;;4995378;28;20050;-63
2022/01/26 03:19:19;;;;;;;80.55;46.38;;;4.20;99.90;;;;;;4998573;28;20448;-63
2022/01/26 03:22:03;;;;;;;76.43;43.03;;;4.20;99.90;;;;;;5011008;28;20042;-63
2022/01/26 03:29:59;;;;;;;80.10;44.53;;;4.20;99.90;;;;;;5010572;28;20054;-63
2022/01/26 03:32:41;;;;;;;75.53;43.80;;;4.20;99.90;;;;;;5004462;28;20513;-63
2022/01/26 03:35:15;;;;;;;86.20;46.83;;;4.20;99.90;;;;;;5008321;28;20104;-63
2022/01/26 03:37:49;;;;;;;88.55;45.47;;;4.30;99.90;;;;;;4993041;28;20046;-63
2022/01/26 03:40:15;;;;;;;74.45;43.50;;;4.20;99.90;;;;;;5001307;28;20440;-63
2022/01/26 03:42:41;;;;;;;79.90;42.60;;;4.20;99.90;;;;;;5004991;28;20049;-63
2022/01/26 03:45:07;;;;;;;82.15;43.60;;;4.20;99.90;;;;;;5004246;28;20640;-63
2022/01/26 03:47:33;;;;;;;82.07;44.72;;;4.20;99.90;;;;;;4989016;28;20058;-63
2022/01/26 03:49:58;;;;;;;76.63;43.78;;;4.20;99.90;;;;;;5006153;28;20092;-63
2022/01/26 03:52:24;;;;;;;82.93;46.75;;;4.20;99.90;;;;;;5003995;28;20088;-63
2022/01/26 03:54:49;;;;;;;79.40;46.40;;;4.20;99.90;;;;;;4993572;28;20074;-63
2022/01/26 03:57:15;;;;;;;79.65;44.72;;;4.20;99.90;;;;;;5005304;28;20103;-63
2022/01/26 03:59:40;;;;;;;78.78;46.97;;;4.10;99.90;;;;;;4995611;28;20072;-63
2022/01/26 04:02:06;;;;;;;84.07;50.10;;;4.10;99.90;;;;;;4997054;28;20538;-63
2022/01/26 04:04:38;;;;;;;81.43;47.38;;;4.10;99.90;;;;;;4994317;28;20406;-63
2022/01/26 04:07:04;;;;;;;86.03;47.90;;;4.10;99.90;;;;;;4999316;28;20129;-63
2022/01/26 04:09:29;;;;;;;78.72;49.42;;;4.10;99.90;;;;;;4997011;28;20124;-63
2022/01/26 04:11:55;;;;;;;90.30;49.10;;;4.10;99.90;;;;;;5009979;28;20096;-64
2022/01/26 04:14:25;;;;;;;81.75;47.42;;;4.10;99.90;;;;;;5007409;28;20061;-63
2022/01/26 04:16:51;;;;;;;84.47;45.90;;;4.10;99.90;;;;;;5005787;28;20121;-64
2022/01/26 04:19:17;;;;;;;84.03;46.10;;;4.10;99.90;;;;;;5009449;28;20121;-63
2022/01/26 04:24:25;;;;;;;83.75;44.10;;;4.10;99.90;;;;;;4996635;28;20054;-62
2022/01/26 04:26:59;;;;;;;;;;;4.10;99.90;;;;;;5001499;28;20053;-63
2022/01/26 04:29:28;;;;;;;83.05;45.38;;;4.10;99.90;;;;;;5007196;28;20042;-63
2022/01/26 04:31:54;;;;;;;87.40;46.70;;;4.10;99.90;;;;;;5009302;28;20524;-63
2022/01/26 04:34:20;;;;;;;75.93;42.80;;;4.10;99.90;;;;;;5009133;28;20041;-63
2022/01/26 04:36:53;;;;;;;80.88;44.13;;;4.10;99.90;;;;;;5007639;28;20088;-63
2022/01/26 04:39:28;;;;;;;84.88;46.42;;;4.10;99.90;;;;;;5001147;28;20058;-63
2022/01/26 04:42:05;;;;;;;86.97;45.60;;;4.10;99.90;;;;;;4994707;28;20529;-63
2022/01/26 04:44:38;;;;;;;86.85;46.17;;;4.10;99.90;;;;;;5001600;28;20398;-63
2022/01/26 04:47:03;;;;;;;87.15;47.65;;;4.20;99.90;;;;;;4989364;28;20088;-63
2022/01/26 04:49:29;;;;;;;87.53;45.70;;;4.20;99.90;;;;;;5001362;28;20089;-63
2022/01/26 04:51:55;;;;;;;84.18;44.60;;;4.20;99.90;;;;;;5007573;28;20489;-63
2022/01/26 04:54:20;;;;;;;94.60;46.65;;;4.20;99.90;;;;;;4999606;28;20050;-63
2022/01/26 04:56:46;;;;;;;84.25;44.25;;;4.20;99.90;;;;;;4989241;28;20534;-63
2022/01/26 04:59:12;;;;;;;74.72;40.10;;;4.20;99.90;;;;;;5001108;28;20125;-63
2022/01/26 05:01:37;;;;;;;86.50;44.15;;;4.20;99.90;;;;;;4994842;28;20069;-63
2022/01/26 05:04:03;;;;;;;82.13;43.15;;;4.20;99.90;;;;;;4997057;28;20046;-63
2022/01/26 05:06:29;;;;;;;76.13;41.88;;;4.20;99.90;;;;;;5003793;28;20043;-63
2022/01/26 05:08:54;;;;;;;91.43;46.58;;;4.20;99.90;;;;;;4990791;28;20050;-63
2022/01/26 05:11:42;;;;;;;88.60;43.53;;;4.20;99.90;;;;;;5007664;28;20413;-63
2022/01/26 05:14:06;;;;;;;91.28;44.85;;;4.10;99.90;;;;;;5004814;28;20042;-63
2022/01/26 05:16:32;;;;;;;81.95;41.60;;;4.10;99.90;;;;;;5000994;28;20056;-63
2022/01/26 05:18:58;;;;;;;89.88;45.22;;;4.10;99.90;;;;;;5004831;28;20041;-63
2022/01/26 05:21:26;;;;;;;84.15;42.03;;;4.10;99.90;;;;;;5001462;28;20435;-63
2022/01/26 05:23:51;;;;;;;80.40;43.05;;;4.10;99.90;;;;;;4996845;28;20528;-63
2022/01/26 05:26:17;;;;;;;85.13;44.67;;;4.20;99.90;;;;;;4994818;28;20050;-63
2022/01/26 05:28:43;;;;;;;76.38;38.95;;;4.10;99.90;;;;;;5001793;28;20049;-63
2022/01/26 05:31:09;;;;;;;84.38;43.78;;;4.20;99.90;;;;;;5007731;28;20046;-63
2022/01/26 05:33:35;;;;;;;88.15;43.13;;;4.20;99.90;;;;;;4996054;28;20058;-63
2022/01/26 05:36:01;;;;;;;86.50;44.30;;;4.10;99.90;;;;;;4995728;28;20049;-62
2022/01/26 05:38:27;;;;;;;81.18;41.85;;;4.10;99.90;;;;;;4997398;28;20050;-63
2022/01/26 05:40:55;;;;;;;90.28;41.58;;;4.10;99.90;;;;;;5007547;28;20054;-63
2022/01/26 05:43:21;;;;;;;89.70;45.10;;;4.10;99.90;;;;;;5006178;28;20487;-63
2022/01/26 05:45:53;;;;;;;90.55;45.00;;;4.10;99.90;;;;;;5004201;28;20034;-63
2022/01/26 05:48:18;;;;;;;80.68;43.78;;;4.10;99.90;;;;;;4988750;28;20073;-63
2022/01/26 05:50:51;;;;;;;88.50;46.03;;;4.10;99.90;;;;;;4994902;28;20050;-63
2022/01/26 05:53:20;;;;;;;87.80;47.13;;;4.10;99.90;;;;;;4993741;28;20525;-63
2022/01/26 05:55:50;;;;;;;91.13;47.55;;;4.10;99.90;;;;;;5002432;28;20046;-63
2022/01/26 05:58:15;;;;;;;82.53;44.35;;;4.10;99.90;;;;;;4988777;28;20046;-63
2022/01/26 06:00:41;;;;;;;80.93;43.17;;;4.10;99.90;;;;;;4997347;28;20042;-63
2022/01/26 06:03:06;;;;;;;90.65;45.05;;;4.20;99.90;;;;;;5007819;28;20494;-63
2022/01/26 06:05:32;;;;;;;84.90;46.17;;;4.20;99.90;;;;;;5005907;28;20482;-63
2022/01/26 06:07:57;;;;;;;90.10;46.75;;;4.20;99.90;;;;;;4997439;28;20053;-63
2022/01/26 06:10:23;;;;;;;86.65;45.83;;;4.20;99.90;;;;;;5008385;28;20045;-63
2022/01/26 06:12:48;;;;;;;92.68;46.75;;;4.20;99.90;;;;;;5008474;28;20045;-63
2022/01/26 06:15:15;;;;;;;86.85;44.40;;;4.20;99.90;;;;;;5006650;28;20042;-63
2022/01/26 06:17:40;;;;;;;94.40;48.10;;;4.20;99.90;;;;;;4992263;28;20153;-63
2022/01/26 06:20:07;;;;;;;90.07;47.70;;;4.20;99.90;;;;;;5004216;28;20289;-63
2022/01/26 06:22:33;;;;;;;92.22;46.28;;;4.20;99.90;;;;;;5010727;28;20077;-63
2022/01/26 06:25:04;;;;;;;86.88;43.13;;;4.30;99.90;;;;;;4994230;28;20054;-63
2022/01/26 06:27:30;;;;;;;84.15;45.20;;;4.30;99.90;;;;;;5009599;28;20069;-63
2022/01/26 06:29:55;;;;;;;87.82;47.22;;;4.30;99.90;;;;;;5008201;28;20054;-63
2022/01/26 06:32:21;;;;;;;82.55;46.10;;;4.30;99.90;;;;;;5000314;28;20457;-63
2022/01/26 06:34:47;;;;;;;92.72;50.05;;;4.40;99.90;;;;;;5005091;28;20052;-63
2022/01/26 06:37:15;;;;;;;85.63;48.03;;;4.30;99.90;;;;;;4997260;28;20046;-63
2022/01/26 06:39:41;;;;;;;94.07;47.65;;;4.30;99.90;;;;;;4999333;28;20577;-63
2022/01/26 06:42:12;;;;;;;94.68;49.97;;;4.40;99.90;;;;;;5008334;28;20132;-63
2022/01/26 06:44:48;;;;;;;88.88;46.78;;;4.40;99.90;;;;;;5007853;28;20132;-63
2022/01/26 06:49:39;;;;;;;80.15;42.55;;;4.50;99.90;;;;;;5000183;28;20050;-63
2022/01/26 06:52:05;;;;;;;81.35;41.53;;;4.50;99.90;;;;;;5011442;28;20048;-63
2022/01/26 06:54:30;;;;;;;68.38;39.67;;;4.50;99.90;;;;;;5003312;28;20081;-63
2022/01/26 06:56:56;;;;;;;79.03;40.35;;;4.50;99.90;;;;;;4998687;28;20062;-63
2022/01/26 06:59:24;;;;;;;75.97;38.42;;;4.60;99.90;;;;;;5011463;28;20476;-63
2022/01/26 07:01:50;;;;;;;71.13;39.60;;;4.60;99.90;;;;;;4999583;28;20037;-63
2022/01/26 07:04:16;;;;;;;72.63;39.55;;;4.60;99.90;;;;;;4999214;28;20136;-63
2022/01/26 07:06:41;;;;;;;68.63;38.47;;;4.60;99.90;;;;;;5011445;28;20458;-64
2022/01/26 07:09:07;;;;;;;65.40;37.45;;;4.60;99.90;;;;;;5004975;28;20045;-63
2022/01/26 07:11:32;;;;;;;71.35;36.15;;;4.60;99.90;;;;;;4996005;28;20113;-63
2022/01/26 07:14:00;;;;;;;67.15;35.13;;;4.70;99.90;;;;;;4992829;28;20042;-63
2022/01/26 07:21:54;;;;;;;61.38;35.75;;;4.60;99.90;;;;;;5002074;28;20019;-63
2022/01/26 07:24:19;;;;;;;59.42;34.50;;;4.70;99.90;;;;;;5009307;28;20084;-63
2022/01/26 07:26:46;;;;;;;72.95;40.13;;;4.70;99.90;;;;;;5002842;28;20042;-63
2022/01/26 07:29:13;;;;;;;64.35;36.65;;;4.70;99.90;;;;;;5000862;28;20088;-63
2022/01/26 07:31:42;;;;;;;70.28;39.75;;;4.70;99.90;;;;;;5000514;28;20050;-63
2022/01/26 07:34:13;;;;;;;70.38;40.60;;;4.70;99.90;;;;;;5000670;28;20061;-63
2022/01/26 07:36:39;;;;;;;70.75;42.08;;;4.60;99.90;;;;;;4991108;28;20132;-63
2022/01/26 07:39:09;;;;;;;76.93;41.58;;;4.70;99.90;;;;;;4999915;28;20042;-62
2022/01/26 07:41:35;;;;;;;79.72;42.83;;;4.60;99.90;;;;;;4999764;28;20125;-63
2022/01/26 07:44:01;;;;;;;77.65;43.00;;;4.70;99.90;;;;;;5003234;28;20434;-63
2022/01/26 07:46:27;;;;;;;81.38;43.60;;;4.70;99.90;;;;;;5006371;28;20437;-63
2022/01/26 07:48:54;;;;;;;77.53;44.83;;;4.60;99.90;;;;;;5005050;28;20054;-63
2022/01/26 07:51:20;;;;;;;80.57;42.25;;;4.60;99.90;;;;;;5009945;28;20123;-62
2022/01/26 07:53:46;;;;;;;75.57;42.15;;;4.70;99.90;;;;;;5001068;28;20786;-63
2022/01/26 07:56:11;;;;;;;70.95;41.83;;;4.70;99.90;;;;;;4990739;28;20085;-62
2022/01/26 07:58:37;;;;;;;80.45;45.28;;;4.70;99.90;;;;;;4995096;28;20558;-62
2022/01/26 08:01:03;;;;;;;78.72;42.40;;;4.70;99.90;;;;;;5003387;28;20042;-62
2022/01/26 08:03:33;;;;;;;79.20;41.65;;;4.70;99.90;;;;;;5006163;28;20077;-62
2022/01/26 08:06:04;;;;;;;78.20;42.92;;;4.70;99.90;;;;;;5004235;28;20052;-62
2022/01/26 08:08:30;;;;;;;76.55;42.45;;;4.70;99.90;;;;;;5004252;28;20050;-62
2022/01/26 08:10:56;;;;;;;75.15;41.88;;;4.70;99.90;;;;;;5001465;28;20072;-62
2022/01/26 08:13:22;;;;;;;81.45;42.70;;;4.70;99.90;;;;;;5004854;28;20049;-62
2022/01/26 08:15:47;;;;;;;85.80;43.92;;;4.70;99.90;;;;;;4998765;28;20042;-62
2022/01/26 08:18:13;;;;;;;80.10;43.95;;;4.80;99.90;;;;;;5006501;28;20042;-63
2022/01/26 08:20:40;;;;;;;78.20;41.28;;;4.80;99.90;;;;;;4997011;28;21018;-62
2022/01/26 08:23:06;;;;;;;75.68;43.33;;;4.80;99.90;;;;;;5005843;28;20046;-63
2022/01/26 08:25:32;;;;;;;79.47;42.40;;;4.80;99.90;;;;;;4999661;28;20133;-63
2022/01/26 08:28:06;;;;;;;82.55;42.65;;;4.80;99.90;;;;;;4994859;28;20152;-63
2022/01/26 08:30:36;;;;;;;82.43;41.60;;;4.80;99.90;;;;;;4996640;28;20054;-63
2022/01/26 08:33:02;;;;;;;85.55;44.13;;;4.80;99.90;;;;;;5000666;28;20084;-62
2022/01/26 08:35:28;;;;;;;85.43;43.85;;;4.80;99.90;;;;;;4999997;28;20056;-63
2022/01/26 08:37:53;;;;;;;80.68;43.08;;;4.90;99.90;;;;;;5007654;28;20042;-62
2022/01/26 08:40:19;;;;;;;78.05;42.25;;;4.90;99.90;;;;;;5004266;28;20109;-63
2022/01/26 08:42:45;;;;;;;82.53;43.13;;;4.90;99.90;;;;;;5003442;28;20092;-63
2022/01/26 08:45:11;;;;;;;74.10;41.53;;;4.90;99.90;;;;;;5008729;28;20112;-63
2022/01/26 08:47:37;;;;;;;81.90;43.25;;;4.90;99.90;;;;;;4991082;28;20056;-63
2022/01/26 08:50:03;;;;;;;83.45;41.40;;;4.90;99.90;;;;;;5000260;28;20054;-63
2022/01/26 08:52:29;;;;;;;77.45;39.28;;;4.90;99.90;;;;;;4999844;28;20050;-62
2022/01/26 08:54:55;;;;;;;68.10;37.85;;;4.90;99.90;;;;;;5007213;28;20030;-63
2022/01/26 08:57:20;;;;;;;67.82;35.58;;;4.90;99.90;;;;;;4992418;28;20097;-63
2022/01/26 08:59:46;;;;;;;74.53;37.13;;;4.90;99.90;;;;;;4989570;28;20050;-63
2022/01/26 09:02:11;;;;;;;72.70;35.63;;;4.90;99.90;;;;;;4991102;28;20042;-63
2022/01/26 09:04:37;;;;;;;66.03;33.60;;;4.90;99.90;;;;;;5001019;28;20445;-63
2022/01/26 09:07:04;;;;;;;67.72;34.65;;;4.90;99.90;;;;;;4991565;28;20057;-62
2022/01/26 09:09:33;;;;;;;68.13;34.75;;;4.90;99.90;;;;;;5000896;28;20042;-62
2022/01/26 09:12:06;;;;;;;65.32;34.60;;;4.90;99.90;;;;;;4995883;28;20053;-62
2022/01/26 09:14:32;;;;;;;68.17;33.53;;;4.90;99.90;;;;;;5007045;28;20054;-62
2022/01/26 09:16:58;;;;;;;65.72;35.75;;;5.00;99.90;;;;;;5004995;28;20048;-62
2022/01/26 09:19:29;;;;;;;74.63;36.22;;;5.00;99.90;;;;;;4994378;28;20050;-62
2022/01/26 09:22:16;;;;;;;70.95;35.38;;;5.00;99.90;;;;;;4987618;28;20170;-62
2022/01/26 09:24:43;;;;;;;75.50;34.00;;;5.00;99.90;;;;;;4996608;28;20046;-62
2022/01/26 09:27:14;;;;;;;59.15;32.03;;;5.00;99.90;;;;;;5007763;28;20041;-62
2022/01/26 09:29:41;;;;;;;62.70;34.22;;;5.00;99.90;;;;;;4990990;28;20107;-62
2022/01/26 09:32:07;;;;;;;68.57;34.90;;;5.00;99.90;;;;;;5001400;28;20050;-62
2022/01/26 09:34:35;;;;;;;65.20;34.03;;;5.00;99.90;;;;;;5008540;28;20095;-62
2022/01/26 09:37:02;;;;;;;68.03;33.20;;;5.00;99.90;;;;;;4995830;28;20046;-62
2022/01/26 09:39:28;;;;;;;65.22;33.13;;;5.00;99.90;;;;;;4987522;28;20129;-62
2022/01/26 09:41:54;;;;;;;62.80;33.92;;;5.00;99.90;;;;;;5006866;28;20447;-62
2022/01/26 09:44:20;;;;;;;64.57;35.47;;;5.00;99.90;;;;;;4996891;28;20100;-63
2022/01/26 09:46:46;;;;;;;66.70;36.58;;;5.00;99.90;;;;;;4991541;28;20042;-62
2022/01/26 09:49:17;;;;;;;63.80;36.85;;;5.00;99.90;;;;;;4996199;28;20046;-63
2022/01/26 09:51:47;;;;;;;70.40;36.35;;;5.10;99.90;;;;;;4994319;28;20089;-63
2022/01/26 09:54:16;;;;;;;66.18;38.28;;;5.00;99.90;;;;;;5004882;28;20120;-63
2022/01/26 09:56:48;;;;;;;69.90;35.50;;;5.00;99.90;;;;;;5011097;28;20060;-63
2022/01/26 09:59:15;;;;;;;60.63;33.88;;;5.10;99.90;;;;;;4991979;28;20093;-63
2022/01/26 10:01:48;;;;;;;63.25;33.15;;;5.10;99.90;;;;;;4992069;28;20050;-63
2022/01/26 10:04:28;;;;;;;66.88;35.03;;;5.10;99.90;;;;;;4991971;28;20046;-63
2022/01/26 10:07:08;;;;;;;66.20;32.83;;;5.10;99.90;;;;;;5002004;28;20038;-63
2022/01/26 10:17:38;;;;;;;72.20;34.35;;;5.10;99.90;;;;;;5001968;28;20065;-62
2022/01/26 10:20:05;;;;;;;67.13;32.95;;;5.10;99.90;;;;;;5001539;28;20031;-62
2022/01/26 10:22:34;;;;;;;60.55;33.72;;;5.10;99.90;;;;;;5006962;28;20053;-63
2022/01/26 10:25:19;;;;;;;63.40;34.30;;;5.10;99.90;;;;;;5010639;28;20049;-63
2022/01/26 10:27:49;;;;;;;62.70;33.75;;;5.10;99.90;;;;;;5001366;28;20137;-63
2022/01/26 10:30:18;;;;;;;68.18;35.38;;;5.10;99.90;;;;;;4994201;28;20490;-62
2022/01/26 10:32:45;;;;;;;68.05;36.65;;;5.10;99.90;;;;;;4993407;28;20189;-62
2022/01/26 10:35:14;;;;;;;84.50;37.92;;;5.10;99.90;;;;;;4995827;28;20034;-63
2022/01/26 10:37:48;;;;;;;67.43;34.63;;;5.20;99.90;;;;;;5011903;28;20049;-63
2022/01/26 10:40:19;;;;;;;66.55;34.30;;;5.20;99.90;;;;;;5000328;28;20617;-62
2022/01/26 10:42:57;;;;;;;69.57;35.50;;;5.10;99.90;;;;;;5010637;28;20702;-62
2022/01/26 10:45:37;;;;;;;65.43;34.85;;;5.20;99.90;;;;;;5005714;28;20060;-62
2022/01/26 10:48:22;;;;;;;71.18;35.67;;;5.20;99.90;;;;;;4991229;28;20073;-63
2022/01/26 10:51:21;;;;;;;63.45;34.47;;;5.20;99.90;;;;;;5002843;28;20061;-62
2022/01/26 10:53:48;;;;;;;70.68;33.50;;;5.20;99.90;;;;;;5000231;28;20612;-62
2022/01/26 10:56:15;;;;;;;71.38;35.72;;;5.20;99.90;;;;;;4991489;28;20058;-62
2022/01/26 10:58:41;;;;;;;69.55;36.30;;;5.20;99.90;;;;;;4992043;28;20042;-63
2022/01/26 11:01:07;;;;;;;74.63;38.10;;;5.20;99.90;;;;;;4991319;28;20494;-62
2022/01/26 11:03:33;;;;;;;66.22;37.33;;;5.20;99.90;;;;;;4990892;28;20038;-63
2022/01/26 11:06:03;;;;;;;67.60;35.40;;;5.20;99.90;;;;;;4990093;28;20050;-62
2022/01/26 11:08:30;;;;;;;65.82;33.15;;;5.20;99.90;;;;;;5001309;28;20038;-63
2022/01/26 11:10:57;;;;;;;78.35;36.47;;;5.20;99.90;;;;;;5008972;28;20816;-62
2022/01/26 11:13:42;;;;;;;75.07;34.53;;;5.30;99.90;;;;;;5004996;28;20065;-63
2022/01/26 11:16:10;;;;;;;65.53;36.47;;;5.30;99.90;;;;;;4999285;28;21034;-62
2022/01/26 11:19:12;;;;;;;73.57;36.90;;;5.30;99.90;;;;;;4990551;28;20050;-63
2022/01/26 11:21:39;;;;;;;68.47;33.25;;;5.30;99.90;;;;;;4990260;28;20076;-62
2022/01/26 11:24:16;;;;;;;69.22;37.10;;;5.30;99.90;;;;;;5002289;28;20103;-63
2022/01/26 11:26:44;;;;;;;63.40;33.38;;;5.30;99.90;;;;;;4991643;28;20074;-63
2022/01/26 11:29:32;;;;;;;66.25;35.58;;;5.30;99.90;;;;;;4988453;28;20100;-62
2022/01/26 11:32:06;;;;;;;68.28;36.22;;;5.30;99.90;;;;;;4990618;28;20038;-62
2022/01/26 11:34:33;;;;;;;;;;;5.40;99.90;;;;;;5010641;28;20050;-62
2022/01/26 11:36:59;;;;;;;67.57;32.65;;;5.40;99.90;;;;;;4998647;28;19945;-63
2022/01/26 11:45:08;;;;;;;60.95;33.78;;;5.50;99.90;;;;;;4993604;28;20050;-62
2022/01/26 11:47:37;;;;;;;68.70;31.55;;;5.50;99.90;;;;;;4994073;28;20038;-63
2022/01/26 11:50:14;;;;;;;64.82;31.02;;;5.60;99.90;;;;;;4989738;28;20486;-62
2022/01/26 11:52:43;;;;;;;77.35;35.83;;;5.60;99.90;;;;;;4991562;28;20047;-62
2022/01/26 11:55:32;;;;;;;66.97;30.40;;;5.70;99.90;;;;;;4998438;28;20050;-63
2022/01/26 11:58:19;;;;;;;63.05;34.17;;;5.70;99.90;;;;;;4990688;28;20490;-62
2022/01/26 12:01:07;;;;;;;60.65;30.70;;;5.70;99.90;;;;;;4989517;28;20046;-62
2022/01/26 12:03:35;;;;;;;77.38;32.22;;;5.80;99.90;;;;;;4990804;28;20513;-62
2022/01/26 12:06:01;;;;;;;58.85;29.55;;;5.80;99.90;;;;;;4990923;28;20053;-62
2022/01/26 12:08:36;;;;;;;51.50;27.90;;;5.80;99.90;;;;;;4994938;28;20114;-62
2022/01/26 12:11:03;;;;;;;57.33;29.02;;;5.90;99.90;;;;;;5005330;28;20781;-62
2022/01/26 12:13:30;;;;;;;52.85;28.33;;;5.90;99.90;;;;;;5003886;28;20086;-62
2022/01/26 12:16:07;;;;;;;67.40;29.42;;;6.00;99.90;;;;;;5009552;28;20516;-62
2022/01/26 12:35:16;;;;;;;69.68;35.58;;;5.90;99.90;;;;;;4988758;28;20525;-62
2022/01/26 12:38:01;;;;;;;70.53;35.15;;;5.80;99.90;;;;;;4990317;28;20209;-62
2022/01/26 12:43:19;;;;;;;69.85;35.88;;;5.80;99.90;;;;;;4998360;28;20553;-62
2022/01/26 12:45:47;;;;;;;67.47;34.03;;;5.80;99.90;;;;;;4998323;28;20038;-62
2022/01/26 12:48:13;;;;;;;65.32;33.63;;;5.70;99.90;;;;;;4996466;28;20148;-62
2022/01/26 12:50:40;;;;;;;67.75;34.85;;;5.80;99.90;;;;;;4998547;28;20057;-63
2022/01/26 12:53:06;;;;;;;61.05;32.60;;;5.80;99.90;;;;;;4989797;28;20081;-62
2022/01/26 12:55:35;;;;;;;64.13;33.65;;;5.80;99.90;;;;;;4989555;28;20129;-62
2022/01/26 12:58:02;;;;;;;64.18;32.75;;;5.80;99.90;;;;;;4988880;28;20058;-62
2022/01/26 13:00:42;;;;;;;67.25;32.03;;;5.90;99.90;;;;;;4989945;28;20034;-62
2022/01/26 13:03:13;;;;;;;66.82;32.13;;;5.90;99.90;;;;;;4989592;28;20084;-62
2022/01/26 13:05:39;;;;;;;58.22;31.60;;;6.00;99.90;;;;;;4997091;28;20034;-62
2022/01/26 13:08:06;;;;;;;76.88;34.55;;;6.00;99.90;;;;;;4989462;28;20546;-62
2022/01/26 13:10:33;;;;;;;60.75;32.05;;;6.00;99.90;;;;;;4990987;28;20108;-62
2022/01/26 13:13:22;;;;;;;59.35;31.42;;;6.00;99.90;;;;;;4994221;28;20058;-62
2022/01/26 13:16:05;;;;;;;59.78;29.85;;;6.00;99.90;;;;;;4990290;28;20054;-63
2022/01/26 13:21:38;;;;;;;60.72;31.33;;;6.00;99.90;;;;;;4988788;28;20046;-62
2022/01/26 13:24:14;;;;;;;71.97;32.30;;;6.00;99.90;;;;;;4987274;28;20462;-62
2022/01/26 13:26:51;;;;;;;68.78;31.38;;;6.00;99.90;;;;;;4989243;28;20306;-62
2022/01/26 13:29:33;;;;;;;57.83;31.45;;;6.00;99.90;;;;;;4988581;28;20144;-62
2022/01/26 13:39:57;;;;;;;62.67;31.88;;;5.90;99.90;;;;;;4989227;28;20062;-62
2022/01/26 13:45:26;;;;;;;63.58;31.25;;;5.90;99.90;;;;;;4988181;28;20050;-62
2022/01/26 13:55:58;;;;;;;58.17;29.40;;;6.00;99.90;;;;;;4965141;28;20059;-63
2022/01/26 14:00:59;;;;;;;56.85;30.80;;;6.10;99.90;;;;;;4999010;28;20050;-62
2022/01/26 14:03:28;;;;;;;46.10;27.03;;;6.10;99.90;;;;;;5008084;28;20053;-62
2022/01/26 14:05:55;;;;;;;53.92;26.40;;;6.10;99.90;;;;;;4990948;28;20300;-62
2022/01/26 14:08:21;;;;;;;43.50;23.55;;;6.20;99.90;;;;;;4991476;28;20054;-62
2022/01/26 14:10:48;;;;;;;56.28;25.25;;;6.20;99.90;;;;;;5004537;28;20054;-62
2022/01/26 14:13:19;;;;;;;49.08;24.42;;;6.20;99.90;;;;;;4989019;28;20058;-62
2022/01/26 14:15:47;;;;;;;54.40;24.10;;;6.20;99.90;;;;;;4988839;28;20054;-62
2022/01/26 14:18:41;;;;;;;51.70;23.23;;;6.30;99.90;;;;;;4988659;28;20051;-62
2022/01/26 14:21:22;;;;;;;50.65;24.83;;;6.30;99.90;;;;;;4986805;28;20120;-62
2022/01/26 14:24:11;;;;;;;45.42;23.45;;;6.30;99.90;;;;;;4999321;28;20063;-62
2022/01/26 14:26:38;;;;;;;56.03;22.33;;;6.30;99.90;;;;;;4991420;28;20494;-62
2022/01/26 14:29:13;;;;;;;47.45;22.80;;;6.40;99.90;;;;;;4988025;28;20080;-62
2022/01/26 14:31:59;;;;;;;40.95;21.42;;;6.40;99.90;;;;;;4990006;28;20058;-62
2022/01/26 14:55:58;;;;;;;46.70;25.52;;;6.30;99.90;;;;;;4991337;28;20050;-62
2022/01/26 15:22:59;;;;;;;51.35;26.58;;;6.30;99.90;;;;;;4989211;28;20702;-62
2022/01/26 15:33:43;;;;;;;45.15;24.52;;;6.40;99.90;;;;;;4996675;28;20081;-62
2022/01/26 15:49:43;;;;;;;55.00;24.13;;;6.40;99.90;;;;;;4999657;28;20685;-62
2022/01/26 15:52:23;;;;;;;48.25;23.63;;;6.50;99.90;;;;;;4998220;28;20103;-62
2022/01/26 16:17:30;;;;;;;41.72;21.38;;;6.50;99.90;;;;;;4994942;28;20403;-62
2022/01/26 16:44:17;;;;;;;39.70;20.40;;;6.60;99.90;;;;;;4990015;28;20073;-62
2022/01/26 17:02:31;;;;;;;45.03;20.90;;;6.60;99.90;;;;;;4988771;28;20402;-62
2022/01/26 17:43:13;;;;;;;39.78;19.85;;;6.70;99.90;;;;;;4994632;28;20498;-62
2022/01/26 18:15:51;;;;;;;39.45;22.25;;;6.70;99.90;;;;;;4997948;28;20096;-62
2022/01/26 18:40:02;;;;;;;41.17;22.85;;;6.80;99.90;;;;;;4991411;28;20042;-62
2022/01/26 18:50:28;;;;;;;42.08;22.20;;;6.80;99.90;;;;;;5008492;28;20112;-62
2022/01/26 18:52:53;;;;;;;43.17;23.42;;;6.80;99.90;;;;;;4992646;28;20392;-62